Time;durP1;ratioP1;P1;durP2;ratioP2;P2;SDS_P1;SDS_P2;PMS_P1;PMS_P2;Temp;Humidity;BMP_temperature;BMP_pressure;BME280_temperature;BME280_humidity;BME280_pressure;Samples;Min_cycle;Max_cycle;Signal;HPM_P1;HPM_P2
2021/12/06 00:00:20;;;;;;;50.88;22.17;;;3.00;99.90;;;;;;5126739;27;20039;-69
2021/12/06 00:02:47;;;;;;;53.75;20.88;;;3.00;99.90;;;;;;5130519;27;20086;-69
2021/12/06 00:05:16;;;;;;;51.90;20.42;;;3.20;99.90;;;;;;5101902;27;20049;-72
2021/12/06 00:07:42;;;;;;;51.38;21.48;;;2.90;99.90;;;;;;5109099;27;20047;-69
2021/12/06 00:10:09;;;;;;;51.47;21.05;;;3.20;99.90;;;;;;5129275;27;20637;-70
2021/12/06 00:12:35;;;;;;;51.50;22.58;;;3.00;99.90;;;;;;5137252;27;20396;-69
2021/12/06 00:15:02;;;;;;;47.13;20.63;;;3.30;99.90;;;;;;5119517;27;20046;-72
2021/12/06 00:17:28;;;;;;;53.15;21.52;;;3.10;99.90;;;;;;5119453;27;20039;-69
2021/12/06 00:19:54;;;;;;;56.40;21.92;;;3.80;99.90;;;;;;5132030;27;20134;-69
2021/12/06 00:22:23;;;;;;;50.63;20.40;;;3.00;99.90;;;;;;5098516;27;20057;-70
2021/12/06 00:24:54;;;;;;;49.72;21.70;;;3.00;99.90;;;;;;5125535;27;20039;-69
2021/12/06 00:27:20;;;;;;;50.42;21.23;;;3.00;99.90;;;;;;5129550;27;20046;-69
2021/12/06 00:29:47;;;;;;;49.80;20.60;;;3.00;99.90;;;;;;5129888;27;20042;-72
2021/12/06 00:32:13;;;;;;;54.03;20.85;;;3.00;99.90;;;;;;5133197;27;20372;-70
2021/12/06 00:34:40;;;;;;;52.97;21.15;;;3.30;99.90;;;;;;5130489;27;20042;-70
2021/12/06 00:37:23;;;;;;;54.95;22.33;;;3.00;99.90;;;;;;5132396;27;20396;-70
2021/12/06 00:39:56;;;;;;;53.65;22.15;;;3.00;99.90;;;;;;5115616;27;20471;-70
2021/12/06 00:42:24;;;;;;;52.92;21.23;;;3.10;99.90;;;;;;5130903;27;20482;-69
2021/12/06 00:44:51;;;;;;;55.80;21.77;;;3.00;99.90;;;;;;5133114;27;20090;-70
2021/12/06 00:47:17;;;;;;;57.28;21.92;;;3.10;99.90;;;;;;5125381;27;20073;-70
2021/12/06 00:49:45;;;;;;;55.10;21.77;;;3.00;99.90;;;;;;5133134;27;20045;-70
2021/12/06 00:52:12;;;;;;;53.42;21.55;;;3.10;99.90;;;;;;5106719;27;20043;-70
2021/12/06 00:54:38;;;;;;;58.55;22.45;;;3.00;99.90;;;;;;5101268;27;20391;-70
2021/12/06 00:57:06;;;;;;;58.90;22.77;;;3.00;99.90;;;;;;5109380;27;20053;-70
2021/12/06 00:59:33;;;;;;;56.42;21.88;;;3.00;99.90;;;;;;5125689;27;20049;-70
2021/12/06 01:02:00;;;;;;;56.63;22.60;;;3.00;99.90;;;;;;5127753;27;20057;-69
2021/12/06 01:04:29;;;;;;;56.33;22.02;;;3.10;99.90;;;;;;5110115;27;20500;-69
2021/12/06 01:06:55;;;;;;;55.40;22.08;;;3.30;99.90;;;;;;5132090;27;20047;-70
2021/12/06 01:09:21;;;;;;;56.72;22.38;;;3.10;99.90;;;;;;5114549;27;20086;-69
2021/12/06 01:11:47;;;;;;;60.47;22.58;;;3.30;99.90;;;;;;5125788;27;20432;-70
2021/12/06 01:14:13;;;;;;;57.97;23.08;;;3.10;99.90;;;;;;5126723;27;20624;-70
2021/12/06 01:16:39;;;;;;;60.65;23.50;;;3.70;99.90;;;;;;5099663;27;20047;-69
2021/12/06 01:19:05;;;;;;;55.45;22.45;;;3.10;99.90;;;;;;5112489;27;20517;-69
2021/12/06 01:21:45;;;;;;;56.17;23.15;;;3.10;99.90;;;;;;5106413;27;20055;-71
2021/12/06 01:24:13;;;;;;;61.30;23.58;;;3.10;99.90;;;;;;5122544;27;20051;-69
2021/12/06 01:31:43;;;;;;;53.55;21.67;;;3.10;99.90;;;;;;5128763;27;20058;-70
2021/12/06 01:39:38;;;;;;;57.03;22.30;;;3.10;99.90;;;;;;5107093;27;20050;-70
2021/12/06 01:42:07;;;;;;;64.63;23.73;;;3.10;99.90;;;;;;5101809;27;20091;-71
2021/12/06 01:44:45;;;;;;;62.42;23.92;;;3.10;99.90;;;;;;5127845;27;20062;-71
2021/12/06 01:47:24;;;;;;;64.65;23.65;;;3.10;99.90;;;;;;5123809;27;20074;-70
2021/12/06 01:49:53;;;;;;;63.05;23.52;;;3.20;99.90;;;;;;5124769;27;20472;-70
2021/12/06 01:52:30;;;;;;;58.50;24.00;;;3.40;99.90;;;;;;5125107;27;20039;-70
2021/12/06 01:54:56;;;;;;;63.83;23.42;;;3.10;99.90;;;;;;5119354;27;20074;-71
2021/12/06 01:57:24;;;;;;;61.00;24.08;;;3.10;99.90;;;;;;5127542;27;20129;-70
2021/12/06 01:59:50;;;;;;;59.88;22.17;;;4.00;99.90;;;;;;5128543;27;20039;-70
2021/12/06 02:02:16;;;;;;;62.67;23.35;;;3.50;99.90;;;;;;5127996;27;20039;-70
2021/12/06 02:04:43;;;;;;;63.40;24.42;;;3.10;99.90;;;;;;5107701;27;20142;-70
2021/12/06 02:07:15;;;;;;;67.47;24.00;;;3.20;99.90;;;;;;5087302;27;20136;-70
2021/12/06 02:09:43;;;;;;;60.75;24.20;;;3.20;99.90;;;;;;5056462;28;20454;-69
2021/12/06 02:12:10;;;;;;;65.30;23.75;;;3.20;99.90;;;;;;5064555;28;20469;-70
2021/12/06 02:14:49;;;;;;;60.30;23.88;;;3.10;99.90;;;;;;5054994;28;20040;-71
2021/12/06 02:17:23;;;;;;;59.75;23.65;;;3.10;99.90;;;;;;5067420;28;20137;-69
2021/12/06 02:19:59;;;;;;;63.17;23.63;;;3.20;99.90;;;;;;5079806;28;20036;-70
2021/12/06 02:22:27;;;;;;;65.53;23.95;;;3.10;99.90;;;;;;5067347;28;20044;-69
2021/12/06 02:24:55;;;;;;;63.45;23.65;;;3.20;99.90;;;;;;5071231;28;20040;-70
2021/12/06 02:27:22;;;;;;;68.05;23.85;;;3.10;99.90;;;;;;5081665;28;20051;-70
2021/12/06 02:29:50;;;;;;;63.67;23.13;;;3.30;99.90;;;;;;5063736;28;20461;-69
2021/12/06 02:32:17;;;;;;;64.03;23.17;;;3.20;99.90;;;;;;5077498;28;20115;-71
2021/12/06 02:34:45;;;;;;;61.88;22.90;;;3.20;99.90;;;;;;5086115;28;20044;-70
2021/12/06 02:37:13;;;;;;;69.00;24.58;;;3.30;99.90;;;;;;5086664;28;20496;-70
2021/12/06 02:39:39;;;;;;;73.22;23.63;;;3.10;99.90;;;;;;5067667;28;20055;-70
2021/12/06 02:42:09;;;;;;;73.15;24.05;;;3.10;99.90;;;;;;5062409;28;20071;-70
2021/12/06 02:44:35;;;;;;;80.63;23.73;;;3.10;99.90;;;;;;5063040;28;20059;-70
2021/12/06 02:47:01;;;;;;;65.38;22.55;;;3.10;99.90;;;;;;5063631;28;20407;-72
2021/12/06 02:49:27;;;;;;;62.90;22.45;;;3.10;99.90;;;;;;5082304;28;20067;-69
2021/12/06 02:51:53;;;;;;;68.63;23.70;;;3.10;99.90;;;;;;5075057;28;20102;-70
2021/12/06 02:54:21;;;;;;;72.13;23.30;;;3.10;99.90;;;;;;5086672;28;20173;-69
2021/12/06 02:59:18;;;;;;;66.28;23.35;;;3.10;99.90;;;;;;5081680;28;20077;-70
2021/12/06 03:01:56;;;;;;;71.05;23.08;;;3.10;99.90;;;;;;5074110;28;20045;-71
2021/12/06 03:04:22;;;;;;;74.35;23.30;;;3.10;99.90;;;;;;5081357;28;20054;-70
2021/12/06 03:06:52;;;;;;;73.40;23.05;;;3.10;99.90;;;;;;5064727;28;20051;-69
2021/12/06 03:09:22;;;;;;;75.32;25.00;;;3.10;99.90;;;;;;5072828;28;20052;-70
2021/12/06 03:12:09;;;;;;;71.70;23.40;;;3.50;99.90;;;;;;5084653;28;20044;-70
2021/12/06 03:14:40;;;;;;;72.95;22.98;;;3.00;99.90;;;;;;5061796;28;20091;-70
2021/12/06 03:17:09;;;;;;;71.78;22.80;;;3.10;99.90;;;;;;5068502;28;20048;-69
2021/12/06 03:19:35;;;;;;;75.10;24.33;;;3.10;99.90;;;;;;5066154;28;20059;-70
2021/12/06 03:22:02;;;;;;;71.50;23.35;;;3.50;99.90;;;;;;5067369;28;20044;-70
2021/12/06 03:24:28;;;;;;;76.30;23.58;;;3.10;99.90;;;;;;5082209;28;20047;-71
2021/12/06 03:26:54;;;;;;;71.47;22.65;;;3.30;99.90;;;;;;5088179;28;20056;-70
2021/12/06 03:29:20;;;;;;;67.80;23.80;;;3.10;99.90;;;;;;5088318;28;20881;-69
2021/12/06 03:31:47;;;;;;;70.05;23.38;;;3.10;99.90;;;;;;5083085;28;20098;-71
2021/12/06 03:34:14;;;;;;;72.75;23.15;;;3.10;99.90;;;;;;5083704;28;20871;-69
2021/12/06 03:36:40;;;;;;;65.72;22.48;;;3.10;99.90;;;;;;5068732;28;20048;-69
2021/12/06 03:39:20;;;;;;;69.47;23.00;;;3.10;99.90;;;;;;5063780;28;20048;-70
2021/12/06 03:41:58;;;;;;;64.25;22.25;;;3.10;99.90;;;;;;5084056;28;20093;-71
2021/12/06 03:44:24;;;;;;;74.55;23.27;;;3.20;99.90;;;;;;5075118;28;20411;-71
2021/12/06 03:47:04;;;;;;;75.13;22.95;;;3.10;99.90;;;;;;5067860;28;20123;-69
2021/12/06 03:49:30;;;;;;;79.13;23.85;;;3.10;99.90;;;;;;5067538;28;20040;-70
2021/12/06 03:51:55;;;;;;;66.55;22.17;;;3.60;99.90;;;;;;5067841;28;20057;-70
2021/12/06 03:54:25;;;;;;;77.03;24.27;;;3.50;99.90;;;;;;5090462;28;20044;-70
2021/12/06 03:56:51;;;;;;;69.82;22.55;;;3.20;99.90;;;;;;5063794;28;20518;-71
2021/12/06 03:59:20;;;;;;;71.85;23.67;;;3.10;99.90;;;;;;5070912;28;20056;-70
2021/12/06 04:01:47;;;;;;;69.43;22.58;;;3.10;99.90;;;;;;5083295;28;20473;-69
2021/12/06 04:04:14;;;;;;;72.72;22.85;;;3.50;99.90;;;;;;5087804;28;20134;-70
2021/12/06 04:06:41;;;;;;;66.15;22.65;;;3.10;99.90;;;;;;5056946;28;20040;-70
2021/12/06 04:09:08;;;;;;;65.75;21.98;;;3.50;99.90;;;;;;5085101;28;20051;-70
2021/12/06 04:11:36;;;;;;;67.57;22.00;;;3.10;99.90;;;;;;5069155;28;20090;-72
2021/12/06 04:14:03;;;;;;;66.70;22.48;;;3.20;99.90;;;;;;5086115;28;20485;-70
2021/12/06 04:16:29;;;;;;;66.53;22.25;;;3.20;99.90;;;;;;5084433;28;20057;-70
2021/12/06 04:18:55;;;;;;;66.07;21.65;;;3.20;99.90;;;;;;5071142;28;20048;-70
2021/12/06 04:21:22;;;;;;;67.72;22.15;;;3.10;99.90;;;;;;5084558;28;20041;-70
2021/12/06 04:23:49;;;;;;;70.82;21.40;;;3.10;99.90;;;;;;5057090;28;20101;-70
2021/12/06 04:26:15;;;;;;;65.18;21.27;;;3.20;99.90;;;;;;5075953;28;20045;-70
2021/12/06 04:28:47;;;;;;;64.68;21.88;;;3.20;99.90;;;;;;5066369;28;20488;-70
2021/12/06 04:31:15;;;;;;;66.30;22.02;;;3.40;99.90;;;;;;5071035;28;20480;-70
2021/12/06 04:33:41;;;;;;;65.65;21.38;;;3.20;99.90;;;;;;5084385;28;20470;-71
2021/12/06 04:36:07;;;;;;;68.63;22.80;;;3.20;99.90;;;;;;5080954;28;20055;-71
2021/12/06 04:38:33;;;;;;;71.78;22.88;;;3.20;99.90;;;;;;5088045;28;20047;-70
2021/12/06 04:40:59;;;;;;;73.85;22.48;;;3.20;99.90;;;;;;5084020;28;20123;-70
2021/12/06 04:43:24;;;;;;;72.93;23.13;;;3.10;99.90;;;;;;5068823;28;20169;-70
2021/12/06 04:45:50;;;;;;;67.85;22.13;;;3.20;99.90;;;;;;5077308;28;20495;-70
2021/12/06 04:48:16;;;;;;;66.18;21.75;;;3.20;99.90;;;;;;5080728;28;20123;-70
2021/12/06 04:50:42;;;;;;;64.25;21.10;;;3.10;99.90;;;;;;5075087;28;20048;-70
2021/12/06 04:53:18;;;;;;;67.53;21.35;;;3.80;99.90;;;;;;5055226;28;20059;-70
2021/12/06 04:55:47;;;;;;;69.35;22.58;;;3.20;99.90;;;;;;5089681;28;20073;-69
2021/12/06 04:58:18;;;;;;;68.63;22.08;;;3.20;99.90;;;;;;5075572;28;20048;-70
2021/12/06 05:00:49;;;;;;;78.18;23.17;;;3.20;99.90;;;;;;5079790;28;20439;-69
2021/12/06 05:03:16;;;;;;;67.50;22.05;;;3.20;99.90;;;;;;5072167;28;20181;-70
2021/12/06 05:05:47;;;;;;;70.65;22.42;;;3.20;99.90;;;;;;5090908;28;20048;-69
2021/12/06 05:08:31;;;;;;;67.88;21.33;;;3.20;99.90;;;;;;5082003;28;20369;-70
2021/12/06 05:11:00;;;;;;;71.72;21.05;;;3.20;99.90;;;;;;5064446;28;20044;-71
2021/12/06 05:13:27;;;;;;;67.97;22.60;;;3.20;99.90;;;;;;5074801;28;20370;-70
2021/12/06 05:15:53;;;;;;;68.07;21.58;;;3.20;99.90;;;;;;5076728;28;20247;-70
2021/12/06 05:18:19;;;;;;;68.70;22.85;;;3.20;99.90;;;;;;5077407;28;20552;-69
2021/12/06 05:20:45;;;;;;;60.67;21.33;;;3.20;99.90;;;;;;5082141;28;20178;-69
2021/12/06 05:23:11;;;;;;;72.40;21.95;;;3.20;99.90;;;;;;5068919;28;20523;-70
2021/12/06 05:25:38;;;;;;;73.68;22.00;;;3.70;99.90;;;;;;5083899;28;20055;-70
2021/12/06 05:28:05;;;;;;;74.00;22.95;;;3.70;99.90;;;;;;5071512;28;20044;-70
2021/12/06 05:30:33;;;;;;;64.50;21.08;;;3.80;99.90;;;;;;5074001;28;20389;-70
2021/12/06 05:33:00;;;;;;;75.05;23.40;;;3.70;99.90;;;;;;5074674;28;20040;-70
2021/12/06 05:35:26;;;;;;;66.75;22.55;;;3.20;99.90;;;;;;5072794;28;20488;-71
2021/12/06 05:37:55;;;;;;;72.25;22.48;;;3.20;99.90;;;;;;5083128;28;20062;-71
2021/12/06 05:40:24;;;;;;;74.40;22.70;;;3.20;99.90;;;;;;5083574;28;20049;-70
2021/12/06 05:42:51;;;;;;;70.03;23.00;;;3.60;99.90;;;;;;5084739;28;20054;-70
2021/12/06 05:45:19;;;;;;;75.13;21.40;;;3.30;99.90;;;;;;5078847;28;20679;-70
2021/12/06 05:47:46;;;;;;;70.30;22.48;;;3.30;99.90;;;;;;5082748;28;20044;-70
2021/12/06 05:50:12;;;;;;;70.03;23.15;;;3.20;99.90;;;;;;5084774;28;20032;-71
2021/12/06 05:52:38;;;;;;;68.53;21.50;;;3.20;99.90;;;;;;5081349;28;20048;-71
2021/12/06 05:55:05;;;;;;;72.82;22.67;;;3.20;99.90;;;;;;5084769;28;20047;-71
2021/12/06 05:57:31;;;;;;;64.75;21.73;;;3.30;99.90;;;;;;5065436;28;20412;-73
2021/12/06 05:59:57;;;;;;;67.40;21.33;;;3.30;99.90;;;;;;5085959;28;20048;-70
2021/12/06 06:02:23;;;;;;;69.35;21.67;;;3.30;99.90;;;;;;5074887;28;20048;-70
2021/12/06 06:04:49;;;;;;;66.43;21.98;;;3.80;99.90;;;;;;5066836;28;20049;-70
2021/12/06 06:07:15;;;;;;;72.65;21.52;;;3.30;99.90;;;;;;5054063;28;20059;-71
2021/12/06 06:09:41;;;;;;;67.32;22.73;;;3.60;99.90;;;;;;5058725;28;20044;-72
2021/12/06 06:12:07;;;;;;;65.82;21.92;;;3.30;99.90;;;;;;5066295;28;20041;-70
2021/12/06 06:14:33;;;;;;;65.85;21.85;;;3.30;99.90;;;;;;5063302;28;21554;-71
2021/12/06 06:17:08;;;;;;;68.07;21.52;;;3.30;99.90;;;;;;5070491;28;20123;-70
2021/12/06 06:19:35;;;;;;;69.38;23.48;;;3.70;99.90;;;;;;5088499;28;20052;-70
2021/12/06 06:22:01;;;;;;;68.70;22.98;;;3.30;99.90;;;;;;5078406;28;20113;-72
2021/12/06 06:24:27;;;;;;;74.38;22.80;;;3.30;99.90;;;;;;5085767;28;20512;-70
2021/12/06 06:26:53;;;;;;;67.70;22.67;;;3.30;99.90;;;;;;5081321;28;20051;-70
2021/12/06 06:29:19;;;;;;;69.38;23.42;;;4.00;99.90;;;;;;5064701;28;20131;-72
2021/12/06 06:31:45;;;;;;;59.30;21.35;;;3.80;99.90;;;;;;5071045;28;20075;-70
2021/12/06 06:34:11;;;;;;;65.82;22.50;;;3.30;99.90;;;;;;5079957;28;20040;-72
2021/12/06 06:36:38;;;;;;;66.70;22.52;;;3.30;99.90;;;;;;5081072;28;20079;-70
2021/12/06 06:39:08;;;;;;;70.15;22.73;;;3.30;99.90;;;;;;5081260;28;20453;-70
2021/12/06 06:41:35;;;;;;;73.63;24.93;;;3.30;99.90;;;;;;5061312;28;20067;-70
2021/12/06 06:44:01;;;;;;;71.07;24.05;;;3.30;99.90;;;;;;5064008;28;20061;-72
2021/12/06 06:46:27;;;;;;;61.97;20.60;;;3.30;99.90;;;;;;5083424;28;20429;-70
2021/12/06 06:48:56;;;;;;;65.65;22.48;;;3.30;99.90;;;;;;5064843;28;20059;-71
2021/12/06 06:51:23;;;;;;;60.90;21.67;;;3.30;99.90;;;;;;5082191;28;20131;-70
2021/12/06 06:53:48;;;;;;;71.28;22.83;;;3.20;99.90;;;;;;5081667;28;20131;-70
2021/12/06 06:56:14;;;;;;;69.78;22.35;;;3.20;99.90;;;;;;5081640;28;20119;-70
2021/12/06 06:58:40;;;;;;;68.57;22.85;;;3.70;99.90;;;;;;5060098;28;20423;-70
2021/12/06 07:01:05;;;;;;;71.25;23.55;;;3.40;99.90;;;;;;5045291;28;20102;-71
2021/12/06 07:03:32;;;;;;;65.28;22.90;;;3.20;99.90;;;;;;5083541;28;20047;-73
2021/12/06 07:06:03;;;;;;;66.90;24.23;;;3.40;99.90;;;;;;5083006;28;20063;-70
2021/12/06 07:08:29;;;;;;;65.55;23.05;;;3.50;99.90;;;;;;5081533;28;20435;-71
2021/12/06 07:10:56;;;;;;;63.92;22.17;;;3.20;99.90;;;;;;5086952;28;20060;-71
2021/12/06 07:13:23;;;;;;;66.03;22.17;;;3.60;99.90;;;;;;5078311;28;20105;-70
2021/12/06 07:15:49;;;;;;;70.85;23.88;;;3.20;99.90;;;;;;5069886;28;20040;-70
2021/12/06 07:18:16;;;;;;;70.75;23.25;;;3.20;99.90;;;;;;5087582;28;20044;-70
2021/12/06 07:20:42;;;;;;;70.38;22.88;;;3.40;99.90;;;;;;5085534;28;20362;-72
2021/12/06 07:23:08;;;;;;;67.47;23.42;;;3.10;99.90;;;;;;5071828;28;20110;-71
2021/12/06 07:25:34;;;;;;;75.28;23.00;;;3.10;99.90;;;;;;5080655;28;20052;-70
2021/12/06 07:28:02;;;;;;;72.90;22.77;;;3.10;99.90;;;;;;5063384;28;20135;-70
2021/12/06 07:30:28;;;;;;;79.30;24.20;;;3.00;99.90;;;;;;5091483;28;20055;-70
2021/12/06 07:32:54;;;;;;;86.10;25.05;;;3.10;99.90;;;;;;5072480;28;20044;-70
2021/12/06 07:35:22;;;;;;;72.28;23.98;;;3.10;99.90;;;;;;5071579;28;20392;-70
2021/12/06 07:37:48;;;;;;;78.00;24.55;;;3.80;99.90;;;;;;5079773;28;20059;-70
2021/12/06 07:40:16;;;;;;;80.63;24.17;;;3.00;99.90;;;;;;5071278;28;20384;-70
2021/12/06 07:42:41;;;;;;;80.63;24.77;;;3.10;99.90;;;;;;5085047;28;20085;-70
2021/12/06 07:45:10;;;;;;;85.28;24.88;;;3.10;99.90;;;;;;5079017;28;20048;-70
2021/12/06 07:47:37;;;;;;;85.00;24.98;;;3.10;99.90;;;;;;5090438;28;20087;-70
2021/12/06 07:50:09;;;;;;;84.22;24.98;;;3.90;99.90;;;;;;5077941;28;20048;-72
2021/12/06 07:52:35;;;;;;;81.15;24.55;;;3.10;99.90;;;;;;5089969;28;20052;-71
2021/12/06 07:55:04;;;;;;;90.18;26.10;;;3.10;99.90;;;;;;5071792;28;20126;-72
2021/12/06 07:57:30;;;;;;;80.78;23.85;;;3.10;99.90;;;;;;5076816;28;20468;-71
2021/12/06 07:59:56;;;;;;;75.50;23.40;;;3.10;99.90;;;;;;5079081;28;20047;-71
2021/12/06 08:02:22;;;;;;;82.82;24.02;;;3.20;99.90;;;;;;5067174;28;20048;-72
2021/12/06 08:04:54;;;;;;;83.63;23.42;;;3.20;99.90;;;;;;5084375;28;20509;-71
2021/12/06 08:07:20;;;;;;;80.60;24.10;;;3.20;99.90;;;;;;5085774;28;20033;-70
2021/12/06 08:09:49;;;;;;;81.82;23.77;;;3.20;99.90;;;;;;5077489;28;20398;-70
2021/12/06 08:12:15;;;;;;;87.50;25.05;;;3.20;99.90;;;;;;5073923;28;20097;-70
2021/12/06 08:14:41;;;;;;;85.30;25.65;;;3.20;99.90;;;;;;5086973;28;20044;-71
2021/12/06 08:17:06;;;;;;;84.43;24.05;;;3.20;99.90;;;;;;5087167;28;20052;-71
2021/12/06 08:19:32;;;;;;;82.78;22.27;;;3.20;99.90;;;;;;5063490;28;20044;-70
2021/12/06 08:21:58;;;;;;;74.65;22.67;;;3.20;99.90;;;;;;5080181;28;20071;-71
2021/12/06 08:24:24;;;;;;;71.07;21.65;;;3.20;99.90;;;;;;5078913;28;20091;-71
2021/12/06 08:26:50;;;;;;;78.68;24.13;;;3.20;99.90;;;;;;5090806;28;20132;-70
2021/12/06 08:29:16;;;;;;;70.68;21.85;;;3.20;99.90;;;;;;5064595;28;20048;-71
2021/12/06 08:31:44;;;;;;;70.93;23.20;;;3.80;99.90;;;;;;5056469;28;20182;-71
2021/12/06 08:34:10;;;;;;;75.50;23.95;;;3.20;99.90;;;;;;5081860;28;20051;-72
2021/12/06 08:36:37;;;;;;;74.50;21.98;;;3.20;99.90;;;;;;5061628;28;20673;-71
2021/12/06 08:39:05;;;;;;;66.70;20.77;;;3.20;99.90;;;;;;5055684;28;20497;-71
2021/12/06 08:41:32;;;;;;;69.80;23.02;;;3.20;99.90;;;;;;5056260;28;20132;-72
2021/12/06 08:44:01;;;;;;;67.50;21.75;;;3.30;99.90;;;;;;5058715;28;20253;-70
2021/12/06 08:46:33;;;;;;;63.92;20.83;;;3.30;99.90;;;;;;5082771;28;20059;-71
2021/12/06 08:49:04;;;;;;;69.35;21.23;;;4.30;99.90;;;;;;5077181;28;20048;-71
2021/12/06 08:51:35;;;;;;;64.28;21.17;;;3.30;99.90;;;;;;5067461;28;20568;-70
2021/12/06 08:54:04;;;;;;;61.90;19.40;;;3.40;99.90;;;;;;5082041;28;20041;-72
2021/12/06 08:56:31;;;;;;;56.47;17.55;;;3.30;99.90;;;;;;5065789;28;20044;-71
2021/12/06 08:58:57;;;;;;;56.92;20.38;;;3.30;99.90;;;;;;5088381;28;20052;-72
2021/12/06 09:01:25;;;;;;;54.35;19.13;;;3.40;99.90;;;;;;5052739;28;20049;-72
2021/12/06 09:03:50;;;;;;;59.30;19.95;;;3.40;99.90;;;;;;5082046;28;20052;-71
2021/12/06 09:06:16;;;;;;;57.55;20.27;;;3.40;99.90;;;;;;5046697;28;20044;-70
2021/12/06 09:08:43;;;;;;;59.95;19.48;;;3.60;99.90;;;;;;5065274;28;20077;-71
2021/12/06 09:11:09;;;;;;;60.00;20.33;;;3.40;99.90;;;;;;5074380;28;20508;-71
2021/12/06 09:13:36;;;;;;;59.03;19.67;;;3.40;99.90;;;;;;5082566;28;20481;-71
2021/12/06 09:16:06;;;;;;;58.38;18.45;;;3.40;99.90;;;;;;5055006;28;20052;-73
2021/12/06 09:18:37;;;;;;;69.63;20.65;;;3.40;99.90;;;;;;5082235;28;20081;-71
2021/12/06 09:21:05;;;;;;;53.65;18.80;;;3.40;99.90;;;;;;5079569;28;20082;-71
2021/12/06 09:23:31;;;;;;;63.97;20.70;;;3.40;99.90;;;;;;5085474;28;20044;-72
2021/12/06 09:25:57;;;;;;;63.70;21.55;;;3.50;99.90;;;;;;5081603;28;20052;-71
2021/12/06 09:28:25;;;;;;;66.65;20.83;;;3.40;99.90;;;;;;5066398;28;20048;-70
2021/12/06 09:30:52;;;;;;;65.15;20.50;;;3.50;99.90;;;;;;5077248;28;20468;-71
2021/12/06 09:33:18;;;;;;;61.92;19.90;;;3.50;99.90;;;;;;5065301;28;20080;-70
2021/12/06 09:35:48;;;;;;;65.18;20.77;;;3.50;99.90;;;;;;5071475;28;20083;-71
2021/12/06 09:38:18;;;;;;;61.30;20.52;;;3.50;99.90;;;;;;5078328;28;20040;-71
2021/12/06 09:40:47;;;;;;;55.97;20.50;;;3.80;99.90;;;;;;5090927;28;20075;-71
2021/12/06 09:43:14;;;;;;;55.17;20.27;;;3.50;99.90;;;;;;5091652;28;20048;-71
2021/12/06 09:45:42;;;;;;;61.80;19.85;;;3.50;99.90;;;;;;5069207;28;20461;-71
2021/12/06 09:48:09;;;;;;;56.53;19.67;;;3.50;99.90;;;;;;5089935;28;20055;-71
2021/12/06 09:50:46;;;;;;;54.10;19.05;;;3.60;99.90;;;;;;5087265;28;20056;-70
2021/12/06 09:53:19;;;;;;;55.15;19.15;;;3.60;99.90;;;;;;5091713;28;20047;-71
2021/12/06 09:55:48;;;;;;;49.45;18.13;;;4.10;99.90;;;;;;5091399;28;20429;-71
2021/12/06 09:58:14;;;;;;;56.60;17.63;;;3.60;99.90;;;;;;5074438;28;20130;-72
2021/12/06 10:00:46;;;;;;;54.85;18.50;;;3.60;99.90;;;;;;5071753;28;20506;-71
2021/12/06 10:03:15;;;;;;;52.45;18.33;;;3.60;99.90;;;;;;5070561;28;20052;-73
2021/12/06 10:05:42;;;;;;;51.35;17.88;;;3.60;99.90;;;;;;5075509;28;20041;-71
2021/12/06 10:08:08;;;;;;;47.58;17.48;;;3.50;99.90;;;;;;5075457;28;20040;-71
2021/12/06 10:10:35;;;;;;;43.90;18.05;;;3.50;99.90;;;;;;5091172;28;20054;-71
2021/12/06 10:13:03;;;;;;;45.65;16.05;;;3.90;99.90;;;;;;5064635;28;20105;-71
2021/12/06 10:15:29;;;;;;;59.58;20.05;;;3.80;99.90;;;;;;5061269;28;20123;-72
2021/12/06 10:17:58;;;;;;;55.35;18.80;;;3.60;99.90;;;;;;5070939;28;20055;-71
2021/12/06 10:20:26;;;;;;;49.40;17.92;;;3.90;99.90;;;;;;5070473;28;20049;-71
2021/12/06 10:22:54;;;;;;;48.53;17.88;;;3.60;99.90;;;;;;5080562;28;20050;-71
2021/12/06 10:25:20;;;;;;;48.35;17.35;;;3.60;99.90;;;;;;5090838;28;20059;-71
2021/12/06 10:28:01;;;;;;;44.85;17.17;;;3.50;99.90;;;;;;5091063;28;20075;-71
2021/12/06 10:30:26;;;;;;;45.80;15.68;;;3.60;99.90;;;;;;5082140;28;20512;-71
2021/12/06 10:33:09;;;;;;;47.78;16.55;;;3.50;99.90;;;;;;5070771;28;20048;-71
2021/12/06 10:35:39;;;;;;;44.90;17.52;;;3.50;99.90;;;;;;5053470;28;20055;-71
2021/12/06 10:38:05;;;;;;;43.95;16.80;;;3.50;99.90;;;;;;5070454;28;20052;-70
2021/12/06 10:40:34;;;;;;;48.47;18.05;;;3.50;99.90;;;;;;5067535;28;20111;-74
2021/12/06 10:43:03;;;;;;;42.67;16.08;;;3.60;99.90;;;;;;5090786;28;20833;-71
2021/12/06 10:45:37;;;;;;;43.88;16.13;;;4.00;99.90;;;;;;5089992;28;20056;-71
2021/12/06 10:48:17;;;;;;;43.08;16.88;;;3.70;99.90;;;;;;5074109;28;20056;-71
2021/12/06 10:50:51;;;;;;;41.67;16.30;;;3.50;99.90;;;;;;5087533;28;20093;-70
2021/12/06 10:53:20;;;;;;;45.17;16.73;;;3.60;99.90;;;;;;5084806;28;20051;-70
2021/12/06 10:55:48;;;;;;;43.95;16.90;;;3.50;99.90;;;;;;5087240;28;20052;-70
2021/12/06 10:58:17;;;;;;;50.78;17.00;;;3.50;99.90;;;;;;5037888;28;20052;-71
2021/12/06 11:00:45;;;;;;;42.13;16.45;;;3.50;99.90;;;;;;5081867;28;20036;-70
2021/12/06 11:03:45;;;;;;;45.33;16.17;;;3.40;99.90;;;;;;5058258;28;20044;-70
2021/12/06 11:06:33;;;;;;;48.70;17.00;;;3.80;99.90;;;;;;5085407;28;20492;-71
2021/12/06 11:09:03;;;;;;;45.05;17.77;;;3.50;99.90;;;;;;5082055;28;20062;-71
2021/12/06 11:11:39;;;;;;;48.45;18.00;;;3.40;99.90;;;;;;5080967;28;20127;-70
2021/12/06 11:14:15;;;;;;;54.53;19.25;;;3.40;99.90;;;;;;5067006;28;20404;-70
2021/12/06 11:16:45;;;;;;;59.08;20.42;;;3.60;99.90;;;;;;5087284;28;20506;-71
2021/12/06 11:19:22;;;;;;;56.72;19.98;;;3.40;99.90;;;;;;5064898;28;20181;-71
2021/12/06 11:21:49;;;;;;;56.78;18.92;;;3.80;99.90;;;;;;5087167;28;20048;-70
2021/12/06 11:24:27;;;;;;;44.80;16.58;;;3.40;99.90;;;;;;5083530;28;20036;-70
2021/12/06 11:27:13;;;;;;;55.72;19.02;;;3.40;99.90;;;;;;5065172;28;20066;-72
2021/12/06 11:29:43;;;;;;;49.97;18.20;;;3.40;99.90;;;;;;5078504;28;20040;-71
2021/12/06 11:32:30;;;;;;;48.28;16.88;;;3.30;99.90;;;;;;5067765;28;20400;-71
2021/12/06 11:35:06;;;;;;;50.67;17.92;;;3.30;99.90;;;;;;5090129;28;20393;-71
2021/12/06 11:37:38;;;;;;;51.20;17.55;;;3.40;99.90;;;;;;5072124;28;20040;-71
2021/12/06 11:40:05;;;;;;;46.03;17.02;;;3.40;99.90;;;;;;5089320;28;20043;-71
2021/12/06 11:42:45;;;;;;;44.97;17.17;;;3.40;99.90;;;;;;5087445;28;20044;-71
2021/12/06 11:45:11;;;;;;;43.25;16.73;;;4.40;99.90;;;;;;5067918;28;20048;-71
2021/12/06 11:47:37;;;;;;;47.10;17.17;;;3.60;99.90;;;;;;5080407;28;20128;-71
2021/12/06 11:50:04;;;;;;;41.25;16.05;;;3.80;99.90;;;;;;5057111;28;20127;-70
2021/12/06 11:52:35;;;;;;;38.72;16.23;;;3.40;99.90;;;;;;5084379;28;20500;-71
2021/12/06 11:55:10;;;;;;;40.97;16.00;;;3.50;99.90;;;;;;5091423;28;20048;-71
2021/12/06 11:57:44;;;;;;;38.95;14.93;;;3.50;99.90;;;;;;5075742;28;20055;-72
2021/12/06 12:00:15;;;;;;;41.28;16.33;;;3.50;99.90;;;;;;5061904;28;20076;-71
2021/12/06 12:02:53;;;;;;;45.47;16.08;;;3.50;99.90;;;;;;5084088;28;20036;-71
2021/12/06 12:05:25;;;;;;;44.42;16.70;;;3.50;99.90;;;;;;5056552;28;20051;-71
2021/12/06 12:07:55;;;;;;;38.85;15.50;;;3.50;99.90;;;;;;5074269;28;20044;-73
2021/12/06 12:10:42;;;;;;;42.03;15.17;;;3.50;99.90;;;;;;5088196;28;20662;-70
2021/12/06 12:13:11;;;;;;;42.92;17.20;;;4.10;99.90;;;;;;5086730;28;20227;-70
2021/12/06 12:15:38;;;;;;;42.38;16.90;;;3.90;99.90;;;;;;5071328;28;20056;-71
2021/12/06 12:18:04;;;;;;;45.53;16.63;;;3.70;99.90;;;;;;5091786;28;20427;-70
2021/12/06 12:20:31;;;;;;;43.35;16.70;;;3.70;99.90;;;;;;5070654;28;20067;-71
2021/12/06 12:23:02;;;;;;;40.70;17.23;;;3.80;99.90;;;;;;5092660;28;20051;-71
2021/12/06 12:25:37;;;;;;;;;;;3.80;99.90;;;;;;5089877;28;20054;-72
2021/12/06 12:30:37;;;;;;;48.22;18.23;;;3.80;99.90;;;;;;5087445;28;20055;-70
2021/12/06 12:33:05;;;;;;;47.90;17.63;;;3.80;99.90;;;;;;5091356;28;20040;-70
2021/12/06 12:35:32;;;;;;;44.83;16.90;;;3.80;99.90;;;;;;5074032;28;20481;-73
2021/12/06 12:37:59;;;;;;;53.75;19.58;;;3.90;99.90;;;;;;5073242;28;20045;-71
2021/12/06 12:40:37;;;;;;;52.60;18.40;;;3.80;99.90;;;;;;5070122;28;20477;-71
2021/12/06 12:43:09;;;;;;;52.00;20.05;;;3.80;99.90;;;;;;5091973;28;20401;-71
2021/12/06 12:45:49;;;;;;;50.78;18.95;;;3.90;99.90;;;;;;5080118;28;20059;-70
2021/12/06 12:48:22;;;;;;;48.92;19.52;;;3.90;99.90;;;;;;5073730;28;20056;-70
2021/12/06 12:51:10;;;;;;;51.15;19.33;;;4.10;99.90;;;;;;5088146;28;20113;-70
2021/12/06 12:53:59;;;;;;;52.60;20.00;;;4.00;99.90;;;;;;5068225;28;20053;-71
2021/12/06 12:56:41;;;;;;;53.40;19.90;;;4.00;99.90;;;;;;5066815;28;20409;-70
2021/12/06 12:59:27;;;;;;;57.08;20.60;;;4.00;99.90;;;;;;5070497;28;20040;-71
2021/12/06 13:02:33;;;;;;;50.15;18.38;;;4.60;99.90;;;;;;5074821;28;20052;-71